sensor_id;sensor_type;location;lat;lon;timestamp;pressure;altitude;pressure_sealevel;temperature;humidity
65997;BME280;52765;52.258;21.052;2023-03-26T00:00:53;99337.88;;;8.07;97.98
65997;BME280;52765;52.258;21.052;2023-03-26T00:03:20;99340.06;;;8.03;97.79
65997;BME280;52765;52.258;21.052;2023-03-26T00:05:47;99336.16;;;7.97;98.12
65997;BME280;52765;52.258;21.052;2023-03-26T00:08:15;99334.34;;;7.98;98.63
65997;BME280;52765;52.258;21.052;2023-03-26T00:10:41;99351.41;;;7.89;99.19
65997;BME280;52765;52.258;21.052;2023-03-26T00:13:08;99350.91;;;7.85;98.93
65997;BME280;52765;52.258;21.052;2023-03-26T00:15:35;99343.34;;;7.81;99.05
65997;BME280;52765;52.258;21.052;2023-03-26T00:18:01;99340.81;;;7.79;99.61
65997;BME280;52765;52.258;21.052;2023-03-26T00:20:29;99334.16;;;7.83;99.64
65997;BME280;52765;52.258;21.052;2023-03-26T00:22:57;99330.28;;;7.86;99.38
65997;BME280;52765;52.258;21.052;2023-03-26T00:25:26;99316.88;;;7.86;98.95
65997;BME280;52765;52.258;21.052;2023-03-26T00:27:52;99313.84;;;7.81;98.84
65997;BME280;52765;52.258;21.052;2023-03-26T00:30:18;99330.06;;;7.71;99.29
65997;BME280;52765;52.258;21.052;2023-03-26T00:32:44;99323.69;;;7.64;99.96
65997;BME280;52765;52.258;21.052;2023-03-26T00:35:10;99320.50;;;7.60;99.72
65997;BME280;52765;52.258;21.052;2023-03-26T00:37:37;99316.66;;;7.54;99.75
65997;BME280;52765;52.258;21.052;2023-03-26T00:40:03;99317.97;;;7.50;99.61
65997;BME280;52765;52.258;21.052;2023-03-26T00:42:32;99320.44;;;7.44;100.00
65997;BME280;52765;52.258;21.052;2023-03-26T00:44:58;99306.91;;;7.45;99.88
65997;BME280;52765;52.258;21.052;2023-03-26T00:47:24;99316.28;;;7.49;99.74
65997;BME280;52765;52.258;21.052;2023-03-26T00:49:50;99309.25;;;7.48;99.70
65997;BME280;52765;52.258;21.052;2023-03-26T00:52:16;99316.13;;;7.51;99.11
65997;BME280;52765;52.258;21.052;2023-03-26T00:54:47;99309.41;;;7.47;99.46
65997;BME280;52765;52.258;21.052;2023-03-26T00:57:15;99314.63;;;7.48;99.22
65997;BME280;52765;52.258;21.052;2023-03-26T00:59:41;99316.28;;;7.49;99.51
65997;BME280;52765;52.258;21.052;2023-03-26T01:02:07;99314.97;;;7.53;99.20
65997;BME280;52765;52.258;21.052;2023-03-26T01:04:36;99314.97;;;7.53;99.23
65997;BME280;52765;52.258;21.052;2023-03-26T01:07:16;99313.28;;;7.52;98.95
65997;BME280;52765;52.258;21.052;2023-03-26T01:09:47;99304.72;;;7.49;99.05
65997;BME280;52765;52.258;21.052;2023-03-26T01:12:20;99303.38;;;7.45;98.85
65997;BME280;52765;52.258;21.052;2023-03-26T01:14:50;99310.25;;;7.47;99.15
65997;BME280;52765;52.258;21.052;2023-03-26T01:17:16;99304.56;;;7.50;99.05
65997;BME280;52765;52.258;21.052;2023-03-26T01:22:15;99305.91;;;7.46;99.42
65997;BME280;52765;52.258;21.052;2023-03-26T01:24:41;99310.09;;;7.49;99.18
65997;BME280;52765;52.258;21.052;2023-03-26T01:27:21;99306.56;;;7.48;99.46
65997;BME280;52765;52.258;21.052;2023-03-26T01:40:46;99280.59;;;7.49;99.50
65997;BME280;52765;52.258;21.052;2023-03-26T01:45:55;99281.97;;;7.53;99.39
65997;BME280;52765;52.258;21.052;2023-03-26T01:48:33;99292.16;;;7.49;99.80
65997;BME280;52765;52.258;21.052;2023-03-26T01:51:04;99285.63;;;7.44;100.00
65997;BME280;52765;52.258;21.052;2023-03-26T01:53:30;99283.78;;;7.44;100.00
65997;BME280;52765;52.258;21.052;2023-03-26T02:04:53;99256.81;;;7.46;100.00
65997;BME280;52765;52.258;21.052;2023-03-26T02:07:41;99276.78;;;7.51;100.00
65997;BME280;52765;52.258;21.052;2023-03-26T02:10:29;99267.38;;;7.55;100.00
65997;BME280;52765;52.258;21.052;2023-03-26T02:12:55;99262.34;;;7.52;100.00
65997;BME280;52765;52.258;21.052;2023-03-26T02:15:22;99257.66;;;7.46;100.00
65997;BME280;52765;52.258;21.052;2023-03-26T02:17:47;99263.84;;;7.47;100.00
65997;BME280;52765;52.258;21.052;2023-03-26T02:20:14;99256.81;;;7.46;100.00
65997;BME280;52765;52.258;21.052;2023-03-26T02:22:41;99259.66;;;7.44;100.00
65997;BME280;52765;52.258;21.052;2023-03-26T02:25:11;99258.81;;;7.44;100.00
65997;BME280;52765;52.258;21.052;2023-03-26T02:27:39;99261.16;;;7.38;100.00
65997;BME280;52765;52.258;21.052;2023-03-26T02:30:08;99240.72;;;7.37;100.00
65997;BME280;52765;52.258;21.052;2023-03-26T02:32:34;99254.81;;;7.39;100.00
65997;BME280;52765;52.258;21.052;2023-03-26T02:35:01;99242.06;;;7.33;100.00
65997;BME280;52765;52.258;21.052;2023-03-26T02:37:27;99250.59;;;7.37;100.00
65997;BME280;52765;52.258;21.052;2023-03-26T02:39:54;99251.44;;;7.37;100.00
65997;BME280;52765;52.258;21.052;2023-03-26T02:42:20;99252.59;;;7.27;100.00
65997;BME280;52765;52.258;21.052;2023-03-26T02:44:46;99251.56;;;7.28;100.00
65997;BME280;52765;52.258;21.052;2023-03-26T02:47:12;99250.91;;;7.26;100.00
65997;BME280;52765;52.258;21.052;2023-03-26T02:49:38;99244.06;;;7.31;100.00
65997;BME280;52765;52.258;21.052;2023-03-26T02:52:04;99251.25;;;7.31;100.00
65997;BME280;52765;52.258;21.052;2023-03-26T02:54:31;99248.25;;;7.34;100.00
65997;BME280;52765;52.258;21.052;2023-03-26T02:56:58;99241.91;;;7.35;100.00
65997;BME280;52765;52.258;21.052;2023-03-26T02:59:24;99250.78;;;7.44;100.00
65997;BME280;52765;52.258;21.052;2023-03-26T03:01:50;99248.63;;;7.47;100.00
65997;BME280;52765;52.258;21.052;2023-03-26T03:04:15;99246.28;;;7.52;100.00
65997;BME280;52765;52.258;21.052;2023-03-26T03:06:42;99250.31;;;7.56;100.00
65997;BME280;52765;52.258;21.052;2023-03-26T03:09:09;99241.41;;;7.56;100.00
65997;BME280;52765;52.258;21.052;2023-03-26T03:11:38;99250.50;;;7.63;99.92
65997;BME280;52765;52.258;21.052;2023-03-26T03:14:04;99251.66;;;7.69;99.84
65997;BME280;52765;52.258;21.052;2023-03-26T03:16:30;99252.19;;;7.72;98.43
65997;BME280;52765;52.258;21.052;2023-03-26T03:18:56;99258.22;;;7.83;98.53
65997;BME280;52765;52.258;21.052;2023-03-26T03:21:23;99249.00;;;7.77;98.12
65997;BME280;52765;52.258;21.052;2023-03-26T03:23:49;99268.94;;;7.83;98.00
65997;BME280;52765;52.258;21.052;2023-03-26T03:26:22;99263.09;;;7.87;97.68
65997;BME280;52765;52.258;21.052;2023-03-26T03:28:53;99249.34;;;7.82;96.95
65997;BME280;52765;52.258;21.052;2023-03-26T03:31:20;99265.75;;;7.79;97.89
65997;BME280;52765;52.258;21.052;2023-03-26T03:33:46;99261.09;;;7.81;97.36
65997;BME280;52765;52.258;21.052;2023-03-26T03:36:13;99251.34;;;7.80;97.84
65997;BME280;52765;52.258;21.052;2023-03-26T03:38:39;99260.72;;;7.84;97.11
65997;BME280;52765;52.258;21.052;2023-03-26T03:41:06;99263.78;;;7.81;97.68
65997;BME280;52765;52.258;21.052;2023-03-26T03:43:33;99255.91;;;7.80;97.54
65997;BME280;52765;52.258;21.052;2023-03-26T03:45:59;99257.88;;;7.77;97.53
65997;BME280;52765;52.258;21.052;2023-03-26T03:48:26;99256.38;;;7.75;97.46
65997;BME280;52765;52.258;21.052;2023-03-26T03:50:53;99255.72;;;7.73;97.81
65997;BME280;52765;52.258;21.052;2023-03-26T03:53:20;99261.25;;;7.80;97.29
65997;BME280;52765;52.258;21.052;2023-03-26T03:55:53;99265.75;;;7.79;97.55
65997;BME280;52765;52.258;21.052;2023-03-26T03:58:23;99267.28;;;7.82;97.17
65997;BME280;52765;52.258;21.052;2023-03-26T04:00:54;99261.75;;;7.83;97.35
65997;BME280;52765;52.258;21.052;2023-03-26T04:03:28;99270.63;;;7.84;97.02
65997;BME280;52765;52.258;21.052;2023-03-26T04:05:54;99261.75;;;7.83;97.07
65997;BME280;52765;52.258;21.052;2023-03-26T04:08:23;99263.41;;;7.84;97.08
65997;BME280;52765;52.258;21.052;2023-03-26T04:10:50;99259.75;;;7.85;96.98
65997;BME280;52765;52.258;21.052;2023-03-26T04:13:16;99259.56;;;7.87;96.58
65997;BME280;52765;52.258;21.052;2023-03-26T04:15:42;99253.03;;;7.81;96.21
65997;BME280;52765;52.258;21.052;2023-03-26T04:18:08;99244.47;;;7.86;96.50
65997;BME280;52765;52.258;21.052;2023-03-26T04:20:39;99248.03;;;7.86;96.13
65997;BME280;52765;52.258;21.052;2023-03-26T04:23:07;99247.16;;;7.77;96.90
65997;BME280;52765;52.258;21.052;2023-03-26T04:25:33;99249.34;;;7.74;97.16
65997;BME280;52765;52.258;21.052;2023-03-26T04:28:06;99240.47;;;7.73;96.91
65997;BME280;52765;52.258;21.052;2023-03-26T04:30:33;99247.50;;;7.83;96.84
65997;BME280;52765;52.258;21.052;2023-03-26T04:33:01;99237.63;;;7.75;95.93
65997;BME280;52765;52.258;21.052;2023-03-26T04:35:30;99238.94;;;7.79;96.00
65997;BME280;52765;52.258;21.052;2023-03-26T04:37:59;99244.66;;;7.84;95.87
65997;BME280;52765;52.258;21.052;2023-03-26T04:40:25;99239.44;;;7.91;95.71
65997;BME280;52765;52.258;21.052;2023-03-26T04:42:55;99235.63;;;7.93;94.63
65997;BME280;52765;52.258;21.052;2023-03-26T04:45:23;99238.97;;;7.95;94.60
65997;BME280;52765;52.258;21.052;2023-03-26T04:47:49;99245.00;;;7.97;94.69
65997;BME280;52765;52.258;21.052;2023-03-26T04:50:15;99248.03;;;8.03;93.73
65997;BME280;52765;52.258;21.052;2023-03-26T04:52:41;99250.34;;;7.97;94.28
65997;BME280;52765;52.258;21.052;2023-03-26T04:55:18;99254.72;;;7.90;97.72
65997;BME280;52765;52.258;21.052;2023-03-26T04:57:50;99251.84;;;7.75;99.74
65997;BME280;52765;52.258;21.052;2023-03-26T05:00:17;99255.91;;;7.80;100.00
65997;BME280;52765;52.258;21.052;2023-03-26T05:02:45;99245.66;;;7.75;99.44
65997;BME280;52765;52.258;21.052;2023-03-26T05:05:15;99242.16;;;7.74;99.37
65997;BME280;52765;52.258;21.052;2023-03-26T05:07:40;99245.16;;;7.80;100.00
65997;BME280;52765;52.258;21.052;2023-03-26T05:10:06;99247.16;;;7.86;100.00
65997;BME280;52765;52.258;21.052;2023-03-26T05:12:32;99238.78;;;7.89;99.16
65997;BME280;52765;52.258;21.052;2023-03-26T05:14:58;99255.91;;;7.96;98.66
65997;BME280;52765;52.258;21.052;2023-03-26T05:17:24;99242.50;;;7.88;98.38
65997;BME280;52765;52.258;21.052;2023-03-26T05:19:50;99242.66;;;7.94;97.76
65997;BME280;52765;52.258;21.052;2023-03-26T05:22:19;99236.13;;;7.97;96.34
65997;BME280;52765;52.258;21.052;2023-03-26T05:24:44;99236.78;;;7.99;96.46
65997;BME280;52765;52.258;21.052;2023-03-26T05:27:16;99244.31;;;7.95;96.73
65997;BME280;52765;52.258;21.052;2023-03-26T05:29:44;99250.19;;;7.99;97.04
65997;BME280;52765;52.258;21.052;2023-03-26T05:32:10;99245.34;;;8.03;95.78
65997;BME280;52765;52.258;21.052;2023-03-26T05:34:37;99238.63;;;8.15;96.02
65997;BME280;52765;52.258;21.052;2023-03-26T05:37:03;99236.13;;;8.22;95.23
65997;BME280;52765;52.258;21.052;2023-03-26T05:39:31;99245.84;;;8.23;94.45
65997;BME280;52765;52.258;21.052;2023-03-26T05:41:57;99234.75;;;8.26;93.58
65997;BME280;52765;52.258;21.052;2023-03-26T05:44:22;99239.47;;;8.24;94.02
65997;BME280;52765;52.258;21.052;2023-03-26T05:46:48;99244.97;;;8.30;93.38
65997;BME280;52765;52.258;21.052;2023-03-26T05:49:13;99232.22;;;8.41;92.55
65997;BME280;52765;52.258;21.052;2023-03-26T05:51:39;99242.63;;;8.52;92.39
65997;BME280;52765;52.258;21.052;2023-03-26T05:54:05;99241.78;;;8.60;91.30
65997;BME280;52765;52.258;21.052;2023-03-26T05:56:30;99243.44;;;8.61;90.62
65997;BME280;52765;52.258;21.052;2023-03-26T05:58:56;99250.84;;;8.59;91.93
65997;BME280;52765;52.258;21.052;2023-03-26T06:01:21;99243.81;;;8.58;90.55
65997;BME280;52765;52.258;21.052;2023-03-26T06:03:50;99241.31;;;8.56;90.01
65997;BME280;52765;52.258;21.052;2023-03-26T06:06:17;99229.72;;;8.56;90.92
65997;BME280;52765;52.258;21.052;2023-03-26T06:08:45;99233.72;;;8.68;90.38
65997;BME280;52765;52.258;21.052;2023-03-26T06:11:14;99237.19;;;8.85;89.62
65997;BME280;52765;52.258;21.052;2023-03-26T06:13:40;99237.69;;;8.80;89.49
65997;BME280;52765;52.258;21.052;2023-03-26T06:16:06;99236.88;;;8.80;89.30
65997;BME280;52765;52.258;21.052;2023-03-26T06:18:31;99242.09;;;8.73;88.82
65997;BME280;52765;52.258;21.052;2023-03-26T06:20:57;99241.41;;;8.79;88.40
65997;BME280;52765;52.258;21.052;2023-03-26T06:23:22;99239.75;;;8.70;89.13
65997;BME280;52765;52.258;21.052;2023-03-26T06:25:48;99254.50;;;8.74;89.07
65997;BME280;52765;52.258;21.052;2023-03-26T06:28:14;99249.84;;;8.68;89.58
65997;BME280;52765;52.258;21.052;2023-03-26T06:30:40;99250.13;;;8.81;90.05
65997;BME280;52765;52.258;21.052;2023-03-26T06:33:05;99248.63;;;8.79;90.56
65997;BME280;52765;52.258;21.052;2023-03-26T06:35:31;99250.50;;;8.62;93.64
65997;BME280;52765;52.258;21.052;2023-03-26T06:37:57;99250.19;;;8.48;94.34
65997;BME280;52765;52.258;21.052;2023-03-26T06:40:24;99248.69;;;8.38;95.58
65997;BME280;52765;52.258;21.052;2023-03-26T06:42:49;99257.25;;;8.25;97.03
65997;BME280;52765;52.258;21.052;2023-03-26T06:45:15;99256.59;;;8.23;97.08
65997;BME280;52765;52.258;21.052;2023-03-26T06:47:41;99260.25;;;8.13;99.46
65997;BME280;52765;52.258;21.052;2023-03-26T06:50:07;99260.59;;;8.19;100.00
65997;BME280;52765;52.258;21.052;2023-03-26T06:52:34;99261.09;;;8.22;99.34
65997;BME280;52765;52.258;21.052;2023-03-26T06:54:59;99256.38;;;8.24;100.00
65997;BME280;52765;52.258;21.052;2023-03-26T06:57:25;99246.84;;;8.05;100.00
65997;BME280;52765;52.258;21.052;2023-03-26T06:59:51;99245.84;;;8.06;100.00
65997;BME280;52765;52.258;21.052;2023-03-26T07:02:17;99260.59;;;8.27;100.00
65997;BME280;52765;52.258;21.052;2023-03-26T07:04:42;99260.91;;;8.40;99.44
65997;BME280;52765;52.258;21.052;2023-03-26T07:07:08;99251.38;;;8.46;98.16
65997;BME280;52765;52.258;21.052;2023-03-26T07:09:33;99248.50;;;8.47;97.59
65997;BME280;52765;52.258;21.052;2023-03-26T07:11:59;99259.41;;;8.54;98.27
65997;BME280;52765;52.258;21.052;2023-03-26T07:14:24;99255.38;;;8.58;97.44
65997;BME280;52765;52.258;21.052;2023-03-26T07:16:52;99247.97;;;8.77;95.34
65997;BME280;52765;52.258;21.052;2023-03-26T07:19:18;99256.31;;;8.90;95.04
65997;BME280;52765;52.258;21.052;2023-03-26T07:21:44;99255.94;;;9.01;94.05
65997;BME280;52765;52.258;21.052;2023-03-26T07:24:11;99246.16;;;9.08;94.64
65997;BME280;52765;52.258;21.052;2023-03-26T07:26:50;99254.19;;;9.17;92.91
65997;BME280;52765;52.258;21.052;2023-03-26T07:29:45;99245.44;;;9.23;93.33
65997;BME280;52765;52.258;21.052;2023-03-26T07:32:18;99242.03;;;9.29;93.39
65997;BME280;52765;52.258;21.052;2023-03-26T07:37:39;99244.50;;;9.39;91.90
65997;BME280;52765;52.258;21.052;2023-03-26T07:43:04;99252.25;;;9.65;91.06
65997;BME280;52765;52.258;21.052;2023-03-26T07:45:42;99245.44;;;9.54;91.02
65997;BME280;52765;52.258;21.052;2023-03-26T07:48:16;99237.06;;;9.49;90.38
65997;BME280;52765;52.258;21.052;2023-03-26T07:50:42;99244.81;;;9.44;92.24
65997;BME280;52765;52.258;21.052;2023-03-26T07:53:09;99232.56;;;9.41;90.52
65997;BME280;52765;52.258;21.052;2023-03-26T07:55:45;99230.19;;;9.47;89.86
65997;BME280;52765;52.258;21.052;2023-03-26T08:06:37;99233.97;;;9.29;90.71
65997;BME280;52765;52.258;21.052;2023-03-26T08:09:14;99232.41;;;9.43;90.56
65997;BME280;52765;52.258;21.052;2023-03-26T08:11:53;99235.66;;;9.61;89.36
65997;BME280;52765;52.258;21.052;2023-03-26T08:17:53;99219.88;;;10.05;85.27
65997;BME280;52765;52.258;21.052;2023-03-26T08:20:50;99229.91;;;10.26;83.68
65997;BME280;52765;52.258;21.052;2023-03-26T08:23:41;99228.22;;;10.10;84.50
65997;BME280;52765;52.258;21.052;2023-03-26T08:31:51;99220.56;;;9.52;86.03
65997;BME280;52765;52.258;21.052;2023-03-26T08:34:18;99220.00;;;9.34;87.45
65997;BME280;52765;52.258;21.052;2023-03-26T08:36:43;99215.63;;;9.10;88.55
65997;BME280;52765;52.258;21.052;2023-03-26T08:39:09;99228.94;;;8.95;88.51
65997;BME280;52765;52.258;21.052;2023-03-26T09:20:25;99220.06;;;9.25;92.05
65997;BME280;52765;52.258;21.052;2023-03-26T09:23:41;99209.63;;;9.54;91.01
65997;BME280;52765;52.258;21.052;2023-03-26T09:29:14;99198.84;;;10.23;87.24
65997;BME280;52765;52.258;21.052;2023-03-26T09:37:58;99195.56;;;10.81;81.94
65997;BME280;52765;52.258;21.052;2023-03-26T09:46:14;99197.50;;;10.42;79.80
65997;BME280;52765;52.258;21.052;2023-03-26T09:51:50;99212.22;;;9.93;82.33
65997;BME280;52765;52.258;21.052;2023-03-26T10:00:00;99197.19;;;9.61;83.54
65997;BME280;52765;52.258;21.052;2023-03-26T10:02:34;99192.28;;;9.65;83.01
65997;BME280;52765;52.258;21.052;2023-03-26T10:07:46;99183.09;;;9.97;82.50
65997;BME280;52765;52.258;21.052;2023-03-26T10:10:41;99197.25;;;10.29;80.73
65997;BME280;52765;52.258;21.052;2023-03-26T10:15:41;99177.34;;;10.98;77.98
65997;BME280;52765;52.258;21.052;2023-03-26T10:32:50;99173.03;;;9.53;83.72
65997;BME280;52765;52.258;21.052;2023-03-26T10:35:30;99182.75;;;9.54;85.72
65997;BME280;52765;52.258;21.052;2023-03-26T10:52:08;99166.16;;;10.11;75.89
65997;BME280;52765;52.258;21.052;2023-03-26T11:00:12;99191.84;;;8.90;88.61
65997;BME280;52765;52.258;21.052;2023-03-26T11:02:45;99193.34;;;9.24;89.10
65997;BME280;52765;52.258;21.052;2023-03-26T11:05:32;99189.22;;;9.68;85.37
65997;BME280;52765;52.258;21.052;2023-03-26T11:08:54;99162.22;;;9.61;85.92
65997;BME280;52765;52.258;21.052;2023-03-26T11:11:04;99182.94;;;9.75;86.13
65997;BME280;52765;52.258;21.052;2023-03-26T11:13:57;99175.97;;;10.04;84.73
65997;BME280;52765;52.258;21.052;2023-03-26T11:19:43;99171.84;;;10.31;82.06
65997;BME280;52765;52.258;21.052;2023-03-26T11:25:43;99159.56;;;10.29;82.39
65997;BME280;52765;52.258;21.052;2023-03-26T11:31:03;99170.19;;;9.92;84.66
65997;BME280;52765;52.258;21.052;2023-03-26T11:33:38;99174.56;;;9.70;86.93
65997;BME280;52765;52.258;21.052;2023-03-26T11:36:08;99172.84;;;9.54;86.89
65997;BME280;52765;52.258;21.052;2023-03-26T11:38:50;99186.31;;;9.54;87.63
65997;BME280;52765;52.258;21.052;2023-03-26T11:41:23;99175.09;;;9.42;88.86
65997;BME280;52765;52.258;21.052;2023-03-26T11:43:55;99172.75;;;9.48;88.37
65997;BME280;52765;52.258;21.052;2023-03-26T11:46:24;99168.94;;;9.34;86.85
65997;BME280;52765;52.258;21.052;2023-03-26T11:48:58;99173.03;;;9.53;86.31
65997;BME280;52765;52.258;21.052;2023-03-26T11:51:32;99165.91;;;9.83;84.89
65997;BME280;52765;52.258;21.052;2023-03-26T11:54:02;99186.66;;;10.12;79.57
65997;BME280;52765;52.258;21.052;2023-03-26T12:02:13;99173.72;;;10.31;77.42
65997;BME280;52765;52.258;21.052;2023-03-26T12:04:50;99173.78;;;10.23;78.65
65997;BME280;52765;52.258;21.052;2023-03-26T12:07:33;99169.69;;;10.12;79.01
65997;BME280;52765;52.258;21.052;2023-03-26T12:10:04;99168.59;;;10.21;79.47
65997;BME280;52765;52.258;21.052;2023-03-26T12:12:33;99166.88;;;10.43;76.74
65997;BME280;52765;52.258;21.052;2023-03-26T12:15:01;99171.66;;;10.18;75.55
65997;BME280;52765;52.258;21.052;2023-03-26T12:19:57;99172.41;;;9.66;81.98
65997;BME280;52765;52.258;21.052;2023-03-26T12:22:35;99168.97;;;9.57;82.17
65997;BME280;52765;52.258;21.052;2023-03-26T12:31:00;99179.81;;;9.40;83.32
65997;BME280;52765;52.258;21.052;2023-03-26T12:33:32;99175.53;;;9.31;83.36
65997;BME280;52765;52.258;21.052;2023-03-26T12:36:16;99182.72;;;9.31;82.77
65997;BME280;52765;52.258;21.052;2023-03-26T12:38:42;99185.66;;;9.21;83.44
65997;BME280;52765;52.258;21.052;2023-03-26T12:43:39;99164.19;;;10.05;78.61
65997;BME280;52765;52.258;21.052;2023-03-26T12:48:52;99146.47;;;11.00;73.61
65997;BME280;52765;52.258;21.052;2023-03-26T12:56:29;99148.50;;;12.56;62.12
65997;BME280;52765;52.258;21.052;2023-03-26T13:13:52;99165.56;;;12.00;57.17
65997;BME280;52765;52.258;21.052;2023-03-26T13:22:22;99157.22;;;12.93;55.51
65997;BME280;52765;52.258;21.052;2023-03-26T13:31:17;99146.81;;;12.90;56.79
65997;BME280;52765;52.258;21.052;2023-03-26T13:34:07;99148.06;;;13.49;56.62
65997;BME280;52765;52.258;21.052;2023-03-26T13:37:23;99140.00;;;13.82;56.15
65997;BME280;52765;52.258;21.052;2023-03-26T13:43:28;99138.50;;;14.33;55.11
65997;BME280;52765;52.258;21.052;2023-03-26T13:46:35;99140.81;;;13.96;55.04
65997;BME280;52765;52.258;21.052;2023-03-26T13:51:34;99145.03;;;13.17;57.36
65997;BME280;52765;52.258;21.052;2023-03-26T13:54:15;99139.75;;;12.54;58.87
65997;BME280;52765;52.258;21.052;2023-03-26T13:56:53;99151.53;;;12.74;58.23
65997;BME280;52765;52.258;21.052;2023-03-26T14:01:57;99154.16;;;13.03;56.33
65997;BME280;52765;52.258;21.052;2023-03-26T14:04:44;99155.59;;;13.05;55.93
65997;BME280;52765;52.258;21.052;2023-03-26T14:07:22;99149.34;;;13.05;56.34
65997;BME280;52765;52.258;21.052;2023-03-26T14:10:12;99157.66;;;13.65;55.11
65997;BME280;52765;52.258;21.052;2023-03-26T14:13:17;99154.13;;;14.18;53.16
65997;BME280;52765;52.258;21.052;2023-03-26T14:15:45;99132.63;;;14.43;52.47
65997;BME280;52765;52.258;21.052;2023-03-26T14:18:32;99158.94;;;14.22;52.40
65997;BME280;52765;52.258;21.052;2023-03-26T14:21:07;99154.75;;;13.60;53.44
65997;BME280;52765;52.258;21.052;2023-03-26T14:29:28;99156.09;;;12.74;53.53
65997;BME280;52765;52.258;21.052;2023-03-26T14:32:04;99158.63;;;12.19;53.92
65997;BME280;52765;52.258;21.052;2023-03-26T14:34:37;99153.56;;;12.02;54.13
65997;BME280;52765;52.258;21.052;2023-03-26T14:40:01;99145.94;;;12.41;53.99
65997;BME280;52765;52.258;21.052;2023-03-26T14:53:52;99161.09;;;12.84;53.37
65997;BME280;52765;52.258;21.052;2023-03-26T15:01:22;99150.63;;;13.77;51.46
65997;BME280;52765;52.258;21.052;2023-03-26T15:12:50;99145.75;;;14.53;48.64
65997;BME280;52765;52.258;21.052;2023-03-26T15:29:05;99163.84;;;13.45;50.76
65997;BME280;52765;52.258;21.052;2023-03-26T15:32:10;99167.00;;;13.49;50.86
65997;BME280;52765;52.258;21.052;2023-03-26T15:38:09;99155.38;;;13.75;50.66
65997;BME280;52765;52.258;21.052;2023-03-26T15:41:14;99162.47;;;13.83;50.62
65997;BME280;52765;52.258;21.052;2023-03-26T15:49:13;99172.56;;;12.44;53.06
65997;BME280;52765;52.258;21.052;2023-03-26T15:51:54;99181.03;;;12.76;52.87
65997;BME280;52765;52.258;21.052;2023-03-26T15:55:02;99180.69;;;13.34;51.34
65997;BME280;52765;52.258;21.052;2023-03-26T15:57:52;99179.38;;;13.23;51.20
65997;BME280;52765;52.258;21.052;2023-03-26T16:00:35;99172.47;;;13.07;51.83
65997;BME280;52765;52.258;21.052;2023-03-26T16:08:26;99183.56;;;11.93;55.39
65997;BME280;52765;52.258;21.052;2023-03-26T16:11:02;99193.09;;;11.74;55.94
65997;BME280;52765;52.258;21.052;2023-03-26T16:13:49;99188.28;;;12.12;55.04
65997;BME280;52765;52.258;21.052;2023-03-26T16:16:23;99187.66;;;12.73;53.49
65997;BME280;52765;52.258;21.052;2023-03-26T16:22:04;99180.97;;;13.66;50.85
65997;BME280;52765;52.258;21.052;2023-03-26T16:24:40;99191.75;;;13.39;51.55
65997;BME280;52765;52.258;21.052;2023-03-26T16:30:07;99199.06;;;12.69;52.99
65997;BME280;52765;52.258;21.052;2023-03-26T16:32:35;99198.78;;;12.00;54.41
65997;BME280;52765;52.258;21.052;2023-03-26T16:35:21;99200.50;;;11.65;56.02
65997;BME280;52765;52.258;21.052;2023-03-26T16:38:04;99189.91;;;11.27;56.77
65997;BME280;52765;52.258;21.052;2023-03-26T16:40:34;99205.13;;;10.98;58.14
65997;BME280;52765;52.258;21.052;2023-03-26T16:43:57;99197.50;;;10.87;58.54
65997;BME280;52765;52.258;21.052;2023-03-26T16:52:02;99207.53;;;10.48;60.57
65997;BME280;52765;52.258;21.052;2023-03-26T16:57:40;99211.41;;;10.31;61.66
65997;BME280;52765;52.258;21.052;2023-03-26T17:00:33;99218.78;;;10.29;63.05
65997;BME280;52765;52.258;21.052;2023-03-26T17:06:00;99233.16;;;10.06;64.56
65997;BME280;52765;52.258;21.052;2023-03-26T17:12:04;99236.31;;;9.87;66.27
65997;BME280;52765;52.258;21.052;2023-03-26T17:15:00;99242.41;;;9.80;66.60
65997;BME280;52765;52.258;21.052;2023-03-26T17:17:56;99236.91;;;9.74;66.72
65997;BME280;52765;52.258;21.052;2023-03-26T17:20:38;99231.69;;;9.72;66.75
65997;BME280;52765;52.258;21.052;2023-03-26T17:23:26;99239.13;;;9.70;67.39
65997;BME280;52765;52.258;21.052;2023-03-26T17:26:03;99241.38;;;9.58;67.64
65997;BME280;52765;52.258;21.052;2023-03-26T17:28:43;99248.31;;;9.53;68.36
65997;BME280;52765;52.258;21.052;2023-03-26T17:34:39;99237.25;;;9.48;68.81
65997;BME280;52765;52.258;21.052;2023-03-26T17:43:07;99237.06;;;9.49;70.82
65997;BME280;52765;52.258;21.052;2023-03-26T17:45:35;99231.38;;;9.44;71.30
65997;BME280;52765;52.258;21.052;2023-03-26T17:48:19;99229.88;;;9.41;71.57
65997;BME280;52765;52.258;21.052;2023-03-26T17:50:53;99240.13;;;9.46;71.70
65997;BME280;52765;52.258;21.052;2023-03-26T17:53:24;99235.56;;;9.47;71.85
65997;BME280;52765;52.258;21.052;2023-03-26T17:55:52;99237.59;;;9.44;72.03
65997;BME280;52765;52.258;21.052;2023-03-26T17:58:34;99235.09;;;9.43;72.76
65997;BME280;52765;52.258;21.052;2023-03-26T18:01:37;99236.28;;;9.40;73.38
65997;BME280;52765;52.258;21.052;2023-03-26T18:04:12;99244.34;;;9.40;73.40
65997;BME280;52765;52.258;21.052;2023-03-26T18:17:22;99233.09;;;9.37;75.16
65997;BME280;52765;52.258;21.052;2023-03-26T18:19:51;99228.94;;;9.34;75.10
65997;BME280;52765;52.258;21.052;2023-03-26T18:22:21;99235.97;;;9.35;75.27
65997;BME280;52765;52.258;21.052;2023-03-26T18:24:51;99234.47;;;9.33;75.37
65997;BME280;52765;52.258;21.052;2023-03-26T18:27:21;99241.03;;;9.30;75.26
65997;BME280;52765;52.258;21.052;2023-03-26T18:29:57;99244.72;;;9.29;75.67
65997;BME280;52765;52.258;21.052;2023-03-26T18:32:25;99249.09;;;9.30;75.84
65997;BME280;52765;52.258;21.052;2023-03-26T18:35:00;99245.06;;;9.34;75.54
65997;BME280;52765;52.258;21.052;2023-03-26T18:37:30;99240.63;;;9.41;75.56
65997;BME280;52765;52.258;21.052;2023-03-26T18:42:35;99244.81;;;9.44;76.11
65997;BME280;52765;52.258;21.052;2023-03-26T18:45:13;99244.47;;;9.47;76.39
65997;BME280;52765;52.258;21.052;2023-03-26T18:47:46;99240.13;;;9.46;76.67